Time;durP1;ratioP1;P1;durP2;ratioP2;P2;SDS_P1;SDS_P2;PMS_P1;PMS_P2;Temp;Humidity;BMP_temperature;BMP_pressure;BME280_temperature;BME280_humidity;BME280_pressure;Samples;Min_cycle;Max_cycle;Signal;HPM_P1;HPM_P2
2022/04/12 00:01:54;;;;;;;3.10;2.80;;;;;;;12.21;100.00;98830.44;7391176;19;20345;-78
2022/04/12 00:04:21;;;;;;;5.78;3.30;;;;;;;12.20;100.00;98829.69;7388181;19;20342;-79
2022/04/12 00:06:47;;;;;;;6.78;3.05;;;;;;;12.14;100.00;98832.50;7391286;19;20039;-79
2022/04/12 00:09:13;;;;;;;4.38;1.70;;;;;;;12.08;100.00;98825.41;7389136;19;20052;-79
2022/04/12 00:11:40;;;;;;;11.13;4.20;;;;;;;11.99;100.00;98820.88;7392324;19;20032;-78
2022/04/12 00:14:07;;;;;;;7.10;2.67;;;;;;;12.02;100.00;98827.44;7390720;19;20018;-79
2022/04/12 00:16:33;;;;;;;5.88;2.58;;;;;;;12.02;100.00;98827.44;7389783;19;20026;-79
2022/04/12 00:19:06;;;;;;;5.20;2.80;;;;;;;11.96;100.00;98832.25;7388742;19;20014;-78
2022/04/12 00:21:35;;;;;;;5.72;2.95;;;;;;;11.95;100.00;98841.91;7391608;19;20019;-78
2022/04/12 00:24:06;;;;;;;10.68;3.42;;;;;;;11.99;100.00;98832.03;7387781;19;20046;-78
2022/04/12 00:26:32;;;;;;;;;;;;;;;11.96;100.00;98844.19;7391052;19;20011;-79
2022/04/12 00:28:58;;;;;;;9.68;2.30;;;;;;;11.91;100.00;98842.16;7391362;19;19929;-79
2022/04/12 00:31:25;;;;;;;2.25;2.05;;;;;;;11.95;100.00;98837.06;7390353;19;20025;-78
2022/04/12 00:33:51;;;;;;;3.70;2.53;;;;;;;11.92;100.00;98838.13;7391186;19;20021;-78
2022/04/12 00:36:18;;;;;;;10.82;3.45;;;;;;;11.89;100.00;98839.13;7391237;19;20025;-79
2022/04/12 00:38:44;;;;;;;6.82;2.78;;;;;;;11.86;100.00;98850.56;7394638;19;20611;-79
2022/04/12 00:41:11;;;;;;;8.07;3.85;;;;;;;11.88;100.00;98837.63;7389495;19;20047;-78
2022/04/12 00:43:38;;;;;;;10.68;3.28;;;;;;;11.86;100.00;98844.97;7387948;19;20029;-79
2022/04/12 00:46:04;;;;;;;5.78;4.05;;;;;;;11.83;100.00;98841.16;7391155;19;20015;-79
2022/04/12 00:48:32;;;;;;;3.58;2.05;;;;;;;11.78;100.00;98841.91;7393047;19;20747;-79
2022/04/12 00:50:59;;;;;;;4.03;2.60;;;;;;;11.80;100.00;98831.00;7390502;19;20014;-79
2022/04/12 00:53:26;;;;;;;9.05;3.10;;;;;;;11.74;100.00;98827.47;7388611;19;20469;-79
2022/04/12 00:55:53;;;;;;;6.35;3.10;;;;;;;11.72;100.00;98830.00;7389740;19;20018;-79
2022/04/12 00:58:20;;;;;;;6.43;3.45;;;;;;;11.67;100.00;98828.00;7391378;19;20014;-79
2022/04/12 01:00:49;;;;;;;2.47;2.35;;;;;;;11.69;100.00;98824.69;7390764;19;20022;-79
2022/04/12 01:03:16;;;;;;;20.02;3.38;;;;;;;11.58;100.00;98814.28;7389087;19;20022;-79
2022/04/12 01:05:42;;;;;;;5.35;3.70;;;;;;;11.55;100.00;98809.72;7387611;19;20031;-79
2022/04/12 01:08:08;;;;;;;21.92;3.03;;;;;;;11.61;100.00;98801.34;7393365;19;20014;-79
2022/04/12 01:10:35;;;;;;;7.22;2.85;;;;;;;11.67;100.00;98802.91;7388651;19;20025;-80
2022/04/12 01:13:02;;;;;;;5.15;3.17;;;;;;;11.75;100.00;98801.13;7388100;19;20018;-78
2022/04/12 01:15:28;;;;;;;11.88;3.30;;;;;;;11.71;100.00;98799.84;7389861;19;20018;-79
2022/04/12 01:17:55;;;;;;;8.70;3.30;;;;;;;11.61;100.00;98793.72;7389972;19;20041;-79
2022/04/12 01:20:28;;;;;;;5.63;3.70;;;;;;;11.51;100.00;98792.47;7385413;19;20022;-79
2022/04/12 01:23:01;;;;;;;7.35;3.03;;;;;;;11.62;100.00;98792.47;7388107;19;20022;-79
2022/04/12 01:25:28;;;;;;;5.72;3.75;;;;;;;11.80;100.00;98786.38;7388417;19;20026;-78
2022/04/12 01:27:54;;;;;;;7.65;3.13;;;;;;;11.83;100.00;98790.94;7391038;19;20101;-79
2022/04/12 01:30:20;;;;;;;5.10;2.00;;;;;;;11.91;100.00;98783.56;7388143;19;20018;-78
2022/04/12 01:32:46;;;;;;;5.40;2.78;;;;;;;11.96;100.00;98782.03;7386983;19;20056;-77
2022/04/12 01:35:13;;;;;;;8.25;3.83;;;;;;;11.97;100.00;98786.38;7387438;19;20019;-79
2022/04/12 01:37:39;;;;;;;10.00;4.65;;;;;;;12.07;100.00;98795.97;7390062;19;20035;-80
2022/04/12 01:40:06;;;;;;;5.20;2.30;;;;;;;12.10;100.00;98800.53;7385323;19;20056;-79
2022/04/12 01:42:32;;;;;;;11.55;4.03;;;;;;;12.13;100.00;98808.63;7388473;19;20089;-78
2022/04/12 01:44:58;;;;;;;7.40;3.20;;;;;;;12.11;100.00;98791.66;7387859;19;20018;-79
2022/04/12 01:47:25;;;;;;;6.28;3.55;;;;;;;12.13;100.00;98788.34;7390109;19;20015;-79
2022/04/12 01:49:51;;;;;;;15.75;4.03;;;;;;;12.10;100.00;98784.56;7385349;19;20022;-78
2022/04/12 01:52:17;;;;;;;14.30;3.92;;;;;;;12.15;100.00;98792.13;7387431;19;20019;-78
2022/04/12 01:54:43;;;;;;;11.38;3.33;;;;;;;12.16;100.00;98796.47;7388979;19;20495;-79
2022/04/12 01:57:09;;;;;;;8.10;3.50;;;;;;;12.19;100.00;98789.84;7389320;19;20038;-78
2022/04/12 01:59:36;;;;;;;6.40;3.03;;;;;;;12.25;100.00;98797.44;7388873;19;20091;-79
2022/04/12 02:02:02;;;;;;;10.15;3.03;;;;;;;12.26;100.00;98777.38;7386498;19;20035;-78
2022/04/12 02:04:28;;;;;;;30.23;4.10;;;;;;;12.23;100.00;98764.47;7387260;19;20030;-78
2022/04/12 02:06:54;;;;;;;4.05;2.88;;;;;;;12.29;100.00;98764.44;7388415;19;20476;-78
2022/04/12 02:09:20;;;;;;;10.70;3.05;;;;;;;12.26;100.00;98759.91;7386889;19;20014;-79
2022/04/12 02:11:46;;;;;;;10.07;4.32;;;;;;;12.25;100.00;98763.94;7386695;19;20023;-78
2022/04/12 02:14:13;;;;;;;8.15;4.40;;;;;;;12.29;100.00;98776.38;7388538;19;20022;-80
2022/04/12 02:16:39;;;;;;;13.50;3.60;;;;;;;12.35;100.00;98779.88;7384187;19;20015;-81
2022/04/12 02:19:05;;;;;;;10.63;3.65;;;;;;;12.34;100.00;98780.41;7385900;19;20039;-80
2022/04/12 02:21:31;;;;;;;8.15;2.60;;;;;;;12.26;100.00;98779.44;7387596;19;20485;-81
2022/04/12 02:23:57;;;;;;;24.90;3.88;;;;;;;12.25;100.00;98777.91;7387124;19;20082;-81
2022/04/12 02:26:23;;;;;;;8.45;3.50;;;;;;;12.27;100.00;98778.16;7387444;19;20019;-82
2022/04/12 02:28:49;;;;;;;16.02;4.10;;;;;;;12.22;100.00;98782.47;7395398;19;20031;-84
2022/04/12 02:31:16;;;;;;;10.82;3.00;;;;;;;12.17;100.00;98775.63;7389520;19;20366;-83
2022/04/12 02:33:42;;;;;;;9.85;2.92;;;;;;;12.16;100.00;98773.38;7391655;19;20043;-82
2022/04/12 02:36:08;;;;;;;14.40;4.45;;;;;;;12.17;100.00;98772.84;7391845;19;20010;-82
2022/04/12 02:38:34;;;;;;;8.77;3.90;;;;;;;12.17;100.00;98764.47;7396169;19;20014;-82
2022/04/12 02:41:00;;;;;;;11.68;5.57;;;;;;;12.24;100.00;98768.00;7390902;19;20382;-82
2022/04/12 02:43:26;;;;;;;10.93;5.60;;;;;;;12.19;100.00;98769.56;7389313;19;20019;-82
2022/04/12 02:45:52;;;;;;;9.43;2.80;;;;;;;12.12;100.00;98782.00;7387640;19;20014;-82
2022/04/12 02:48:19;;;;;;;13.07;4.25;;;;;;;12.15;100.00;98778.19;7394807;19;20082;-82
2022/04/12 02:50:45;;;;;;;9.55;3.30;;;;;;;12.17;100.00;98769.31;7390140;19;20085;-82
2022/04/12 02:53:11;;;;;;;6.35;3.63;;;;;;;12.15;100.00;98780.97;7390243;19;20030;-83
2022/04/12 02:55:37;;;;;;;11.48;3.90;;;;;;;12.10;100.00;98778.97;7392487;19;20400;-84
2022/04/12 02:58:03;;;;;;;14.05;4.32;;;;;;;12.15;100.00;98772.59;7393139;19;20035;-82
2022/04/12 03:00:29;;;;;;;13.18;4.60;;;;;;;12.02;100.00;98769.59;7391627;19;20018;-83
2022/04/12 03:02:56;;;;;;;8.93;4.05;;;;;;;11.94;100.00;98774.19;7391107;19;20019;-83
2022/04/12 03:05:22;;;;;;;10.00;2.88;;;;;;;11.97;100.00;98773.19;7386481;19;20074;-80
2022/04/12 03:07:48;;;;;;;11.95;4.18;;;;;;;11.95;100.00;98775.69;7389275;19;20018;-82
2022/04/12 03:10:14;;;;;;;13.93;4.00;;;;;;;12.00;100.00;98782.53;7386455;19;20115;-83
2022/04/12 03:12:40;;;;;;;11.77;5.03;;;;;;;12.13;100.00;98769.56;7392989;19;20010;-84
2022/04/12 03:15:08;;;;;;;13.63;4.35;;;;;;;12.19;100.00;98764.72;7393389;19;20028;-84
2022/04/12 03:17:34;;;;;;;11.10;4.07;;;;;;;12.15;100.00;98767.03;7394180;19;20017;-84
2022/04/12 03:20:01;;;;;;;10.15;4.05;;;;;;;12.17;100.00;98758.88;7391793;19;20021;-84
2022/04/12 03:22:27;;;;;;;11.43;4.13;;;;;;;12.17;100.00;98758.88;7392919;19;20018;-84
2022/04/12 03:24:55;;;;;;;8.07;3.30;;;;;;;12.19;100.00;98756.34;7390655;19;20023;-84
2022/04/12 03:27:21;;;;;;;13.27;3.90;;;;;;;12.11;100.00;98749.03;7392548;19;20022;-84
2022/04/12 03:29:47;;;;;;;7.63;2.65;;;;;;;12.18;100.00;98749.25;7396030;19;20018;-84
2022/04/12 03:32:13;;;;;;;12.88;3.85;;;;;;;12.19;100.00;98736.81;7389757;19;20337;-82
2022/04/12 03:34:40;;;;;;;11.38;4.78;;;;;;;12.22;100.00;98743.41;7390263;19;20022;-83
2022/04/12 03:37:07;;;;;;;8.65;4.90;;;;;;;12.23;100.00;98741.38;7389480;19;20372;-82
2022/04/12 03:39:33;;;;;;;10.93;3.20;;;;;;;12.23;100.00;98744.16;7387431;19;20428;-82
2022/04/12 03:41:59;;;;;;;4.00;2.40;;;;;;;12.23;100.00;98738.59;7389063;19;20015;-84
2022/04/12 03:44:25;;;;;;;5.15;3.15;;;;;;;12.28;100.00;98741.34;7395787;19;20011;-83
2022/04/12 03:46:51;;;;;;;4.88;2.38;;;;;;;12.21;100.00;98752.28;7395265;19;20043;-82
2022/04/12 03:49:18;;;;;;;6.43;3.83;;;;;;;12.28;100.00;98762.94;7396289;19;20018;-84
2022/04/12 03:51:44;;;;;;;13.70;3.88;;;;;;;12.37;100.00;98762.63;7394099;19;20030;-83
2022/04/12 03:54:10;;;;;;;16.38;6.55;;;;;;;12.40;100.00;98753.22;7394339;19;20048;-82
2022/04/12 03:56:36;;;;;;;9.88;4.28;;;;;;;12.43;100.00;98741.03;7396587;19;20105;-82
2022/04/12 03:59:03;;;;;;;16.83;4.38;;;;;;;12.47;100.00;98736.69;7396353;19;20022;-83
2022/04/12 04:01:29;;;;;;;6.30;3.17;;;;;;;12.45;100.00;98722.47;7394639;19;20060;-81
2022/04/12 04:03:56;;;;;;;7.28;3.75;;;;;;;12.42;100.00;98711.59;7393775;19;20019;-82
2022/04/12 04:06:22;;;;;;;10.05;3.83;;;;;;;12.44;100.00;98711.81;7393934;19;20035;-81
2022/04/12 04:08:48;;;;;;;8.32;3.92;;;;;;;12.47;100.00;98694.06;7395852;19;20015;-81
2022/04/12 04:11:15;;;;;;;14.40;4.80;;;;;;;12.47;100.00;98685.69;7393726;19;20753;-81
2022/04/12 04:13:41;;;;;;;10.32;4.43;;;;;;;12.51;100.00;98683.34;7394411;19;20018;-81
2022/04/12 04:16:07;;;;;;;15.65;4.43;;;;;;;12.49;100.00;98686.69;7393689;19;20035;-82
2022/04/12 04:18:34;;;;;;;18.65;4.10;;;;;;;12.50;100.00;98676.25;7397281;19;20093;-81
2022/04/12 04:21:01;;;;;;;5.32;3.17;;;;;;;12.48;100.00;98671.19;7393275;19;20022;-81
2022/04/12 04:23:28;;;;;;;15.73;4.18;;;;;;;12.45;100.00;98674.25;7393786;19;20082;-81
2022/04/12 04:25:54;;;;;;;14.05;4.82;;;;;;;12.41;100.00;98666.16;7389848;19;20038;-81
2022/04/12 04:28:29;;;;;;;7.55;3.67;;;;;;;12.28;100.00;98652.00;7395876;19;20026;-82
2022/04/12 04:30:55;;;;;;;11.55;2.95;;;;;;;12.13;100.00;98646.78;7395030;19;20077;-81
2022/04/12 04:33:22;;;;;;;9.55;3.03;;;;;;;12.05;100.00;98654.19;7393188;19;20025;-81
2022/04/12 04:35:49;;;;;;;8.27;4.63;;;;;;;12.10;100.00;98658.97;7391648;19;20019;-81
2022/04/12 04:38:16;;;;;;;14.13;6.30;;;;;;;12.06;100.00;98654.94;7396761;19;20010;-81
2022/04/12 04:40:42;;;;;;;13.57;3.80;;;;;;;11.98;100.00;98663.06;7390811;19;20053;-82
2022/04/12 04:43:09;;;;;;;11.70;4.28;;;;;;;11.88;100.00;98664.66;7391365;19;20014;-81
2022/04/12 04:45:35;;;;;;;19.83;4.65;;;;;;;11.80;100.00;98658.06;7392837;19;20022;-82
2022/04/12 04:48:04;;;;;;;13.63;3.55;;;;;;;11.82;100.00;98666.72;7393175;19;20019;-82
2022/04/12 04:50:32;;;;;;;13.98;5.90;;;;;;;11.80;100.00;98663.66;7391532;19;20506;-82
2022/04/12 04:53:01;;;;;;;5.15;3.95;;;;;;;11.76;100.00;98668.75;7392471;19;20027;-81
2022/04/12 04:55:27;;;;;;;6.78;3.53;;;;;;;11.74;100.00;98671.28;7389742;19;20025;-81
2022/04/12 04:57:55;;;;;;;23.15;5.05;;;;;;;11.69;100.00;98679.69;7394882;19;20020;-82
2022/04/12 05:00:25;;;;;;;14.38;3.67;;;;;;;11.64;100.00;98678.38;7387681;19;20511;-81
2022/04/12 05:02:53;;;;;;;8.02;2.70;;;;;;;11.61;100.00;98670.31;7393367;19;20006;-82
2022/04/12 05:05:20;;;;;;;6.15;3.13;;;;;;;11.56;100.00;98663.47;7391106;19;20082;-80
2022/04/12 05:07:48;;;;;;;8.13;3.85;;;;;;;11.54;100.00;98674.38;7393697;19;20019;-81
2022/04/12 05:10:19;;;;;;;4.22;2.88;;;;;;;11.47;100.00;98674.13;7389775;19;20572;-82
2022/04/12 05:12:45;;;;;;;14.25;4.65;;;;;;;11.36;100.00;98675.66;7389738;19;20015;-81
2022/04/12 05:15:12;;;;;;;13.57;2.97;;;;;;;11.28;100.00;98671.13;7394854;19;20019;-85
2022/04/12 05:17:38;;;;;;;9.15;3.95;;;;;;;11.19;100.00;98671.38;7398246;19;20019;-84
2022/04/12 05:20:09;;;;;;;10.65;4.30;;;;;;;11.04;100.00;98670.88;7394189;19;20028;-85
2022/04/12 05:22:35;;;;;;;21.08;3.85;;;;;;;10.95;100.00;98662.78;7397071;19;20078;-85
2022/04/12 05:25:01;;;;;;;4.30;3.10;;;;;;;10.84;100.00;98657.22;7394160;19;20465;-84
2022/04/12 05:27:32;;;;;;;11.00;3.40;;;;;;;10.68;100.00;98656.69;7397890;19;20355;-85
2022/04/12 05:29:59;;;;;;;5.13;3.50;;;;;;;10.62;100.00;98650.38;7400849;19;20006;-85
2022/04/12 05:32:25;;;;;;;17.38;5.35;;;;;;;10.57;100.00;98645.56;7397405;19;20022;-85
2022/04/12 05:34:52;;;;;;;12.75;3.00;;;;;;;10.49;100.00;98636.19;7396085;19;20049;-84
2022/04/12 05:37:19;;;;;;;12.98;4.82;;;;;;;10.50;100.00;98625.81;7397393;19;20015;-86
2022/04/12 05:39:45;;;;;;;13.45;2.80;;;;;;;10.43;100.00;98620.75;7393564;19;20011;-85
2022/04/12 05:42:11;;;;;;;11.18;4.28;;;;;;;10.39;100.00;98634.91;7396562;19;20484;-85
2022/04/12 05:44:37;;;;;;;6.43;3.15;;;;;;;10.37;100.00;98629.06;7396685;19;20018;-85
2022/04/12 05:47:04;;;;;;;8.32;3.78;;;;;;;10.32;100.00;98635.41;7397514;19;20018;-84
2022/04/12 05:49:31;;;;;;;8.93;2.95;;;;;;;10.41;100.00;98643.53;7395330;19;20306;-84
2022/04/12 05:51:58;;;;;;;15.52;4.50;;;;;;;10.38;100.00;98647.31;7394016;19;20046;-82
2022/04/12 05:54:24;;;;;;;7.63;4.85;;;;;;;10.55;100.00;98662.00;7392730;19;20019;-82
2022/04/12 05:56:50;;;;;;;11.05;2.90;;;;;;;10.60;100.00;98669.59;7391155;19;20117;-81
2022/04/12 05:59:16;;;;;;;15.25;5.28;;;;;;;10.68;100.00;98671.91;7391933;19;20014;-83
2022/04/12 06:01:43;;;;;;;13.07;3.00;;;;;;;10.79;100.00;98671.88;7393659;19;20010;-83
2022/04/12 06:04:09;;;;;;;14.10;5.28;;;;;;;10.95;100.00;98665.56;7393784;19;20015;-83
2022/04/12 06:06:36;;;;;;;5.53;2.53;;;;;;;11.08;100.00;98671.38;7391810;19;20041;-82
2022/04/12 06:09:03;;;;;;;21.33;5.38;;;;;;;11.27;100.00;98672.38;7392989;19;20021;-83
2022/04/12 06:11:29;;;;;;;3.75;3.42;;;;;;;11.43;100.00;98663.97;7392377;19;20025;-82
2022/04/12 06:13:56;;;;;;;16.27;5.25;;;;;;;11.58;100.00;98658.13;7391783;19;20021;-83
2022/04/12 06:16:22;;;;;;;7.40;3.08;;;;;;;11.63;100.00;98667.75;7391753;19;20018;-83
2022/04/12 06:18:48;;;;;;;13.85;4.43;;;;;;;11.67;100.00;98676.66;7393448;19;20021;-83
2022/04/12 06:21:14;;;;;;;19.20;4.40;;;;;;;11.82;100.00;98677.88;7392297;19;20013;-83
2022/04/12 06:23:41;;;;;;;8.90;4.03;;;;;;;11.86;100.00;98672.78;7392540;19;20086;-83
2022/04/12 06:26:10;;;;;;;14.80;3.78;;;;;;;11.88;100.00;98678.59;7391364;19;20019;-83
2022/04/12 06:28:37;;;;;;;16.10;3.92;;;;;;;11.91;100.00;98674.75;7394977;19;20018;-83
2022/04/12 06:31:03;;;;;;;16.30;4.90;;;;;;;11.97;100.00;98669.94;7390487;19;20011;-83
2022/04/12 06:33:30;;;;;;;17.92;4.30;;;;;;;12.08;100.00;98669.88;7392043;19;20047;-85
2022/04/12 06:35:56;;;;;;;8.25;3.30;;;;;;;12.28;100.00;98663.16;7390615;19;20014;-83
2022/04/12 06:38:22;;;;;;;15.00;5.47;;;;;;;12.32;100.00;98674.09;7393741;19;20015;-83
2022/04/12 06:40:49;;;;;;;13.98;5.07;;;;;;;12.45;100.00;98677.06;7392615;19;20022;-82
2022/04/12 06:43:16;;;;;;;12.60;4.93;;;;;;;12.59;100.00;98673.16;7391975;19;20025;-82
2022/04/12 06:45:42;;;;;;;16.50;3.35;;;;;;;12.76;100.00;98671.75;7389483;19;20070;-84
2022/04/12 06:48:08;;;;;;;14.88;2.97;;;;;;;13.01;100.00;98661.41;7392751;19;20014;-82
2022/04/12 06:50:35;;;;;;;10.00;3.50;;;;;;;13.12;100.00;98644.56;7393373;19;20019;-85
2022/04/12 06:53:05;;;;;;;9.35;3.28;;;;;;;13.06;100.00;98641.06;7392506;19;20671;-85
2022/04/12 06:55:31;;;;;;;12.32;4.00;;;;;;;13.12;100.00;98655.75;7392610;19;20203;-86
2022/04/12 06:57:58;;;;;;;12.95;3.92;;;;;;;13.17;100.00;98660.53;7396194;19;20015;-84
2022/04/12 07:00:25;;;;;;;5.22;3.97;;;;;;;13.14;100.00;98653.19;7393189;19;20014;-86
2022/04/12 07:02:51;;;;;;;7.95;4.10;;;;;;;13.13;100.00;98646.06;7391415;19;20014;-84
2022/04/12 07:05:18;;;;;;;7.22;4.13;;;;;;;13.12;100.00;98650.16;7389991;19;20010;-84
2022/04/12 07:07:44;;;;;;;18.20;5.05;;;;;;;13.23;100.00;98658.44;7395023;19;20345;-84
2022/04/12 07:10:15;;;;;;;12.52;3.33;;;;;;;13.19;100.00;98657.97;7389593;19;20102;-84
2022/04/12 07:12:42;;;;;;;15.40;4.60;;;;;;;13.20;100.00;98662.28;7390940;19;20039;-82
2022/04/12 07:15:10;;;;;;;11.15;3.78;;;;;;;13.23;100.00;98652.84;7390792;19;20044;-84
2022/04/12 07:17:36;;;;;;;11.13;5.05;;;;;;;13.23;100.00;98661.22;7396086;19;20014;-83
2022/04/12 07:20:03;;;;;;;25.27;5.30;;;;;;;13.15;100.00;98660.28;7396130;19;20021;-83
2022/04/12 07:22:30;;;;;;;19.02;5.85;;;;;;;13.16;100.00;98661.81;7400734;19;20138;-84
2022/04/12 07:24:56;;;;;;;9.65;3.80;;;;;;;13.20;100.00;98661.50;7398199;19;20026;-84
2022/04/12 07:27:22;;;;;;;10.95;3.33;;;;;;;13.11;100.00;98659.81;7399638;19;20363;-84
2022/04/12 07:29:48;;;;;;;14.70;4.18;;;;;;;13.01;100.00;98672.59;7398330;19;20042;-84
2022/04/12 07:32:14;;;;;;;10.23;4.47;;;;;;;12.91;100.00;98679.78;7398124;19;20017;-83
2022/04/12 07:34:41;;;;;;;8.52;4.03;;;;;;;12.85;100.00;98682.63;7396866;19;20018;-83
2022/04/12 07:37:08;;;;;;;11.38;5.15;;;;;;;12.72;100.00;98701.25;7395263;19;20043;-83
2022/04/12 07:39:34;;;;;;;9.10;5.13;;;;;;;12.62;100.00;98714.00;7391918;19;20026;-83
2022/04/12 07:42:00;;;;;;;11.10;4.15;;;;;;;12.39;100.00;98698.66;7396474;19;20018;-83
2022/04/12 07:44:26;;;;;;;9.25;3.40;;;;;;;12.24;100.00;98687.81;7396572;19;20014;-83
2022/04/12 07:46:52;;;;;;;11.15;4.55;;;;;;;12.33;100.00;98681.94;7399402;19;20014;-84
2022/04/12 07:49:19;;;;;;;9.82;4.03;;;;;;;12.38;100.00;98669.22;7396449;19;20022;-84
2022/04/12 07:51:46;;;;;;;7.15;3.47;;;;;;;12.41;100.00;98659.81;7398058;19;20022;-84
2022/04/12 07:54:12;;;;;;;7.82;4.28;;;;;;;12.44;100.00;98647.59;7399385;19;20014;-84
2022/04/12 07:56:39;;;;;;;16.27;4.50;;;;;;;12.44;100.00;98644.81;7398938;19;20102;-84
2022/04/12 07:59:06;;;;;;;9.27;3.30;;;;;;;12.42;100.00;98644.56;7398547;19;20018;-84
2022/04/12 08:01:32;;;;;;;8.38;3.60;;;;;;;12.42;100.00;98639.75;7398105;19;20011;-84
2022/04/12 08:03:58;;;;;;;9.68;3.33;;;;;;;12.38;100.00;98638.50;7398542;19;20468;-84
2022/04/12 08:06:25;;;;;;;7.10;3.97;;;;;;;12.43;100.00;98630.09;7395648;19;20026;-84
2022/04/12 08:08:51;;;;;;;9.77;3.22;;;;;;;12.49;100.00;98644.03;7400480;19;20593;-84
2022/04/12 08:11:17;;;;;;;7.05;3.80;;;;;;;12.54;100.00;98648.81;7397041;19;20011;-84
2022/04/12 08:13:44;;;;;;;11.10;4.45;;;;;;;12.68;100.00;98642.09;7396546;19;20018;-83
2022/04/12 08:16:10;;;;;;;15.20;2.97;;;;;;;12.78;100.00;98640.50;7398478;19;20014;-84
2022/04/12 08:18:36;;;;;;;11.77;4.50;;;;;;;12.82;100.00;98635.41;7400744;19;20019;-84
2022/04/12 08:21:03;;;;;;;19.38;5.07;;;;;;;12.88;100.00;98636.13;7401712;19;20509;-84
2022/04/12 08:23:29;;;;;;;12.10;4.47;;;;;;;12.81;100.00;98626.25;7401092;19;20022;-84
2022/04/12 08:25:55;;;;;;;9.30;3.70;;;;;;;12.76;100.00;98624.25;7393705;19;20726;-85
2022/04/12 08:28:21;;;;;;;13.65;4.55;;;;;;;12.69;100.00;98630.41;7399009;19;20014;-84
2022/04/12 08:30:47;;;;;;;8.63;3.92;;;;;;;12.68;100.00;98625.34;7397181;19;20032;-84
2022/04/12 08:33:14;;;;;;;12.02;4.43;;;;;;;12.73;100.00;98618.97;7399159;19;20011;-84
2022/04/12 08:35:40;;;;;;;14.85;4.55;;;;;;;12.76;100.00;98643.06;7400633;19;20044;-84
2022/04/12 08:38:06;;;;;;;11.82;4.50;;;;;;;12.79;100.00;98636.44;7400165;19;20007;-82
2022/04/12 08:40:33;;;;;;;8.98;4.50;;;;;;;12.81;100.00;98642.25;7398469;19;20043;-84
2022/04/12 08:42:59;;;;;;;5.85;3.67;;;;;;;12.79;100.00;98634.41;7397969;19;20011;-90
2022/04/12 08:45:26;;;;;;;10.48;3.42;;;;;;;12.85;100.00;98645.53;7395141;19;20096;-89
2022/04/12 08:47:52;;;;;;;11.10;4.72;;;;;;;12.91;100.00;98640.66;7400630;19;20077;-88
2022/04/12 08:50:21;;;;;;;6.75;3.38;;;;;;;12.92;100.00;98653.34;7397397;19;20026;-87
2022/04/12 08:52:47;;;;;;;16.17;6.20;;;;;;;12.89;100.00;98654.38;7397366;19;20014;-90
2022/04/12 08:55:13;;;;;;;19.45;3.92;;;;;;;12.88;100.00;98658.47;7399072;19;20017;-85
2022/04/12 08:57:40;;;;;;;11.23;3.55;;;;;;;12.87;100.00;98679.28;7399167;19;20022;-84
2022/04/12 09:00:07;;;;;;;9.70;3.25;;;;;;;12.85;100.00;98698.63;7401103;19;20014;-85
2022/04/12 09:02:33;;;;;;;16.65;3.53;;;;;;;12.90;100.00;98709.00;7394817;19;20006;-85
2022/04/12 09:05:00;;;;;;;8.25;4.07;;;;;;;12.95;100.00;98697.00;7393009;19;20013;-83
2022/04/12 09:07:27;;;;;;;5.90;2.20;;;;;;;13.07;100.00;98708.91;7394915;19;20073;-83
2022/04/12 09:10:06;;;;;;;12.50;4.32;;;;;;;13.15;100.00;98699.41;7392948;19;20354;-83
2022/04/12 09:12:36;;;;;;;14.43;4.47;;;;;;;13.22;100.00;98693.28;7396191;19;20078;-85
2022/04/12 09:15:10;;;;;;;15.02;5.85;;;;;;;13.26;100.00;98699.31;7397956;19;20018;-87
2022/04/12 09:17:39;;;;;;;18.17;6.68;;;;;;;13.26;100.00;98699.31;7400641;19;20014;-88
2022/04/12 09:20:15;;;;;;;20.98;5.80;;;;;;;13.24;100.00;98693.50;7397159;19;20022;-88
2022/04/12 09:22:41;;;;;;;17.13;4.30;;;;;;;13.28;100.00;98707.94;7395337;19;20018;-87
2022/04/12 09:25:11;;;;;;;16.80;5.05;;;;;;;13.33;100.00;98709.19;7393839;19;20002;-82
2022/04/12 09:27:38;;;;;;;16.23;6.35;;;;;;;13.31;100.00;98715.31;7393309;19;20022;-82
2022/04/12 09:30:08;;;;;;;13.65;6.03;;;;;;;13.27;100.00;98720.44;7396281;19;20011;-88
2022/04/12 09:32:40;;;;;;;11.03;4.83;;;;;;;13.19;100.00;98721.53;7397997;19;20022;-88
2022/04/12 09:35:08;;;;;;;13.80;5.88;;;;;;;13.09;100.00;98729.47;7398240;19;20018;-85
2022/04/12 09:37:36;;;;;;;20.05;6.30;;;;;;;13.08;100.00;98739.13;7397801;19;20018;-89
2022/04/12 09:40:02;;;;;;;16.42;3.50;;;;;;;13.02;100.00;98729.22;7392541;19;20014;-86
2022/04/12 09:42:50;;;;;;;20.75;3.92;;;;;;;13.06;100.00;98724.16;7394478;19;20023;-84
2022/04/12 09:45:19;;;;;;;9.30;3.65;;;;;;;13.09;100.00;98723.88;7394906;19;20010;-88
2022/04/12 09:47:50;;;;;;;16.98;6.03;;;;;;;13.16;100.00;98716.97;7399762;19;20022;-87
2022/04/12 09:50:19;;;;;;;12.25;3.58;;;;;;;13.19;100.00;98710.34;7394118;19;20037;-87
2022/04/12 09:53:00;;;;;;;9.55;3.50;;;;;;;13.25;100.00;98709.00;7397275;19;20015;-88
2022/04/12 09:55:35;;;;;;;10.13;3.65;;;;;;;13.25;100.00;98692.25;7395685;19;20022;-87
2022/04/12 09:58:03;;;;;;;15.23;3.20;;;;;;;13.31;100.00;98678.19;7397801;19;20034;-86
2022/04/12 10:00:30;;;;;;;11.73;4.72;;;;;;;13.40;100.00;98673.03;7394697;19;20035;-88
2022/04/12 10:02:59;;;;;;;15.02;4.63;;;;;;;13.52;100.00;98665.25;7397127;19;20335;-89
2022/04/12 10:05:26;;;;;;;15.88;4.00;;;;;;;13.61;100.00;98657.28;7394325;19;20007;-84
2022/04/12 10:07:54;;;;;;;9.75;3.97;;;;;;;13.78;100.00;98647.94;7398491;19;20018;-86
2022/04/12 10:10:23;;;;;;;22.33;5.93;;;;;;;13.95;100.00;98651.28;7392527;19;20049;-88
2022/04/12 10:12:49;;;;;;;13.63;4.50;;;;;;;14.06;100.00;98642.75;7395511;19;20032;-86
2022/04/12 10:15:16;;;;;;;12.32;4.97;;;;;;;14.11;100.00;98636.34;7395680;19;20375;-87
2022/04/12 10:17:43;;;;;;;15.18;4.10;;;;;;;14.25;100.00;98624.66;7396254;19;20029;-88
2022/04/12 10:20:10;;;;;;;15.90;5.70;;;;;;;14.38;100.00;98632.41;7392893;19;20094;-86
2022/04/12 10:22:37;;;;;;;16.95;6.22;;;;;;;14.53;100.00;98632.69;7396510;19;20013;-86
2022/04/12 10:25:04;;;;;;;14.85;5.90;;;;;;;14.57;100.00;98635.97;7393557;19;20038;-85
2022/04/12 10:27:31;;;;;;;11.15;5.05;;;;;;;14.54;100.00;98639.81;7389603;19;20096;-87
2022/04/12 10:30:19;;;;;;;12.60;5.82;;;;;;;14.45;100.00;98626.19;7394957;19;20099;-88
2022/04/12 10:33:16;;;;;;;8.38;4.57;;;;;;;14.26;100.00;98615.00;7395732;19;20014;-88
2022/04/12 10:35:42;;;;;;;17.17;4.85;;;;;;;14.05;100.00;98607.66;7395742;19;20039;-88
2022/04/12 10:38:10;;;;;;;13.45;4.40;;;;;;;13.91;100.00;98606.81;7397507;19;20010;-88
2022/04/12 10:40:36;;;;;;;12.63;3.78;;;;;;;13.94;100.00;98605.00;7395106;19;20023;-88
2022/04/12 10:43:03;;;;;;;10.65;4.95;;;;;;;13.97;100.00;98587.91;7396271;19;20011;-87
2022/04/12 10:45:33;;;;;;;13.80;4.47;;;;;;;14.09;100.00;98594.13;7393611;19;20021;-84
2022/04/12 10:48:01;;;;;;;10.55;4.10;;;;;;;14.12;100.00;98607.06;7396618;19;20019;-86
2022/04/12 10:50:27;;;;;;;11.63;4.15;;;;;;;14.08;100.00;98604.53;7393968;19;20476;-87
2022/04/12 10:52:53;;;;;;;14.10;4.38;;;;;;;14.09;100.00;98599.72;7399734;19;20025;-85
2022/04/12 10:55:23;;;;;;;5.82;3.30;;;;;;;14.05;100.00;98596.47;7400363;19;20015;-85
2022/04/12 10:57:51;;;;;;;22.30;4.47;;;;;;;14.02;100.00;98600.31;7402450;19;20018;-86
2022/04/12 11:00:19;;;;;;;12.00;3.65;;;;;;;14.00;100.00;98592.44;7398002;19;20014;-86
2022/04/12 11:02:57;;;;;;;6.25;3.35;;;;;;;14.00;100.00;98580.50;7397764;19;20078;-89
2022/04/12 11:05:45;;;;;;;8.18;3.88;;;;;;;13.99;100.00;98579.72;7393319;19;20086;-87
2022/04/12 11:08:14;;;;;;;10.27;3.17;;;;;;;14.04;100.00;98572.53;7396376;19;20017;-88
2022/04/12 11:11:00;;;;;;;17.73;4.85;;;;;;;14.16;100.00;98571.13;7393457;19;20017;-88
2022/04/12 11:13:31;;;;;;;7.78;4.00;;;;;;;14.26;100.00;98563.81;7394962;19;20019;-89
2022/04/12 11:16:12;;;;;;;13.00;5.10;;;;;;;14.23;100.00;98570.47;7398796;19;20026;-89
2022/04/12 11:18:59;;;;;;;13.80;3.70;;;;;;;14.26;100.00;98580.63;7405284;19;20011;-87
2022/04/12 11:21:47;;;;;;;13.38;4.22;;;;;;;14.32;100.00;98570.13;7400810;19;20011;-86
2022/04/12 11:24:15;;;;;;;18.85;4.10;;;;;;;14.29;100.00;98580.34;7400465;19;20010;-87